createdAt,value
2022-11-20T00:01:40.505Z,98516.72
2022-11-20T00:04:12.569Z,98514.84
2022-11-20T00:06:42.482Z,98519.84
2022-11-20T00:09:12.319Z,98530.94
2022-11-20T00:11:40.753Z,98522.38
2022-11-20T00:14:11.965Z,98539.28
2022-11-20T00:16:40.395Z,98545.84
2022-11-20T00:19:09.218Z,98556.25
2022-11-20T00:21:37.634Z,98571.69
2022-11-20T00:24:10.928Z,98571.22
2022-11-20T00:26:39.441Z,98562.19
2022-11-20T00:29:08.510Z,98563.72
2022-11-20T00:31:37.822Z,98578.09
2022-11-20T00:34:06.555Z,98590.03
2022-11-20T00:36:36.296Z,98602.75
2022-11-20T00:39:05.527Z,98598.50
2022-11-20T00:41:35.329Z,98590.38
2022-11-20T00:44:04.132Z,98585.63
2022-11-20T00:46:32.873Z,98563.47
2022-11-20T00:49:02.013Z,98540.56
2022-11-20T00:51:30.629Z,98510.56
2022-11-20T00:54:01.130Z,98450.84
2022-11-20T00:56:30.383Z,98390.19
2022-11-20T00:59:02.097Z,98349.75
2022-11-20T01:01:31.454Z,98283.47
2022-11-20T01:04:02.128Z,98267.88
2022-11-20T01:06:32.550Z,98302.03
2022-11-20T01:09:02.798Z,98350.22
2022-11-20T01:11:33.431Z,98343.28
2022-11-20T01:14:06.297Z,98335.16
2022-11-20T01:16:37.371Z,98307.56
2022-11-20T01:19:08.501Z,98271.16
2022-11-20T01:21:39.390Z,98288.38
2022-11-20T01:24:10.321Z,98308.84
2022-11-20T01:26:40.501Z,98345.25
2022-11-20T01:29:15.300Z,98394.34
2022-11-20T01:31:44.338Z,98390.56
2022-11-20T01:34:15.372Z,98367.19
2022-11-20T01:36:44.669Z,98390.28
2022-11-20T01:39:15.765Z,98404.81
2022-11-20T01:42:08.419Z,98413.00
2022-11-20T01:44:58.416Z,98420.75
2022-11-20T01:47:32.637Z,98423.00
2022-11-20T01:50:06.656Z,98416.03
2022-11-20T01:52:38.841Z,98410.09
2022-11-20T01:55:11.014Z,98386.19
2022-11-20T01:57:42.489Z,98362.28
2022-11-20T02:00:16.064Z,98365.44
2022-11-20T02:02:51.026Z,98361.53
2022-11-20T02:05:25.621Z,98375.00
2022-11-20T02:07:56.549Z,98381.88
2022-11-20T02:10:26.038Z,98391.25
2022-11-20T02:13:12.408Z,98407.56
2022-11-20T02:15:42.895Z,98395.00
2022-11-20T02:18:13.067Z,98387.13
2022-11-20T02:20:44.444Z,98377.25
2022-11-20T02:23:17.095Z,98373.25
2022-11-20T02:25:49.427Z,98378.22
2022-11-20T02:28:19.717Z,98369.25
2022-11-20T02:30:48.521Z,98382.25
2022-11-20T02:33:16.984Z,98374.00
2022-11-20T02:35:47.335Z,98370.53
2022-11-20T02:38:16.540Z,98360.88
2022-11-20T02:40:45.645Z,98346.00
2022-11-20T02:43:15.589Z,98353.69
2022-11-20T02:45:44.318Z,98358.50
2022-11-20T02:48:12.880Z,98367.91
2022-11-20T02:50:41.988Z,98359.13
2022-11-20T02:53:10.668Z,98354.34
2022-11-20T02:55:39.691Z,98353.50
2022-11-20T02:58:08.349Z,98375.72
2022-11-20T03:00:38.412Z,98375.91
2022-11-20T03:03:06.754Z,98388.41
2022-11-20T03:05:35.521Z,98395.00
2022-11-20T03:08:03.866Z,98394.81
2022-11-20T03:10:32.629Z,98396.38
2022-11-20T03:13:01.159Z,98403.78
2022-11-20T03:15:32.560Z,98388.94
2022-11-20T03:18:02.432Z,98378.50
2022-11-20T03:20:31.545Z,98368.34
2022-11-20T03:22:59.947Z,98368.88
2022-11-20T03:25:28.763Z,98383.22
2022-11-20T03:27:57.243Z,98398.47
2022-11-20T03:30:30.354Z,98389.94
2022-11-20T03:32:59.337Z,98399.69
2022-11-20T03:35:29.644Z,98406.44
2022-11-20T03:37:59.218Z,98400.47
2022-11-20T03:40:28.002Z,98397.69
2022-11-20T03:42:56.428Z,98403.84
2022-11-20T03:45:25.233Z,98419.53
2022-11-20T03:47:53.815Z,98414.22
2022-11-20T03:50:22.634Z,98396.41
2022-11-20T03:52:52.626Z,98388.47
2022-11-20T03:55:21.512Z,98395.03
2022-11-20T03:57:49.892Z,98397.50
2022-11-20T04:00:18.723Z,98389.78
2022-11-20T04:02:47.122Z,98389.06
2022-11-20T04:05:16.107Z,98386.25
2022-11-20T04:07:44.485Z,98386.69
2022-11-20T04:10:14.666Z,98387.25
2022-11-20T04:12:43.204Z,98383.41
2022-11-20T04:15:12.239Z,98377.78
2022-11-20T04:17:40.649Z,98381.88
2022-11-20T04:20:10.393Z,98384.50
2022-11-20T04:22:38.875Z,98387.22
2022-11-20T04:25:08.181Z,98392.84
2022-11-20T04:27:38.001Z,98401.00
2022-11-20T04:30:07.904Z,98393.84
2022-11-20T04:32:36.631Z,98400.16
2022-11-20T04:35:05.740Z,98401.13
2022-11-20T04:37:34.854Z,98398.31
2022-11-20T04:40:03.537Z,98400.09
2022-11-20T04:42:31.931Z,98401.75
2022-11-20T04:45:02.178Z,98399.44
2022-11-20T04:47:30.627Z,98398.25
2022-11-20T04:49:59.692Z,98401.22
2022-11-20T04:52:28.235Z,98399.34
2022-11-20T04:54:57.444Z,98418.09
2022-11-20T04:57:25.889Z,98419.09
2022-11-20T04:59:54.716Z,98424.44
2022-11-20T05:02:25.286Z,98435.25
2022-11-20T05:04:54.137Z,98436.44
2022-11-20T05:07:22.720Z,98435.63
2022-11-20T05:09:51.548Z,98448.75
2022-11-20T05:12:19.960Z,98454.19
2022-11-20T05:14:48.756Z,98451.19
2022-11-20T05:17:17.356Z,98466.03
2022-11-20T05:19:50.641Z,98466.97
2022-11-20T05:22:21.506Z,98469.91
2022-11-20T05:24:50.270Z,98470.56
2022-11-20T05:27:18.842Z,98483.66
2022-11-20T05:29:48.815Z,98486.88
2022-11-20T05:32:17.236Z,98477.38
2022-11-20T05:34:47.339Z,98473.03
2022-11-20T05:37:15.680Z,98468.59
2022-11-20T05:39:44.422Z,98478.84
2022-11-20T05:42:30.122Z,98479.88
2022-11-20T05:44:59.393Z,98466.81
2022-11-20T05:47:28.422Z,98456.94
2022-11-20T05:49:58.579Z,98467.41
2022-11-20T05:52:30.557Z,98456.25
2022-11-20T05:54:59.469Z,98456.34
2022-11-20T05:57:27.851Z,98461.91
2022-11-20T05:59:56.662Z,98462.09
2022-11-20T06:02:25.162Z,98458.78
2022-11-20T06:04:53.975Z,98452.34
2022-11-20T06:07:23.920Z,98455.69
2022-11-20T06:09:52.831Z,98450.88
2022-11-20T06:12:21.418Z,98448.31
2022-11-20T06:14:50.198Z,98469.47
2022-11-20T06:17:18.633Z,98473.75
2022-11-20T06:19:47.469Z,98465.06
2022-11-20T06:22:15.954Z,98483.16
2022-11-20T06:24:46.063Z,98502.78
2022-11-20T06:27:14.552Z,98514.84
2022-11-20T06:29:43.407Z,98509.44
2022-11-20T06:32:12.287Z,98511.50
2022-11-20T06:34:41.001Z,98518.25
2022-11-20T06:37:09.462Z,98513.00
2022-11-20T06:39:38.314Z,98511.22
2022-11-20T06:42:08.216Z,98516.34
2022-11-20T06:44:37.115Z,98519.63
2022-11-20T06:47:06.241Z,98520.00
2022-11-20T06:49:35.371Z,98508.75
2022-11-20T06:52:03.894Z,98512.75
2022-11-20T06:54:32.631Z,98518.59
2022-11-20T06:57:01.113Z,98529.13
2022-11-20T06:59:31.246Z,98528.00
2022-11-20T07:01:59.789Z,98526.38
2022-11-20T07:04:28.623Z,98543.53
2022-11-20T07:06:57.346Z,98552.94
2022-11-20T07:09:26.636Z,98571.09
2022-11-20T07:11:55.330Z,98574.13
2022-11-20T07:14:24.091Z,98591.47
2022-11-20T07:16:53.908Z,98593.75
2022-11-20T07:19:22.713Z,98588.00
2022-11-20T07:21:51.322Z,98601.44
2022-11-20T07:24:20.036Z,98614.28
2022-11-20T07:26:49.800Z,98614.25
2022-11-20T07:29:18.752Z,98628.38
2022-11-20T07:31:47.266Z,98627.63
2022-11-20T07:34:17.359Z,98634.13
2022-11-20T07:36:45.739Z,98619.97
2022-11-20T07:39:14.490Z,98604.94
2022-11-20T07:41:42.867Z,98599.00
2022-11-20T07:44:11.742Z,98613.81
2022-11-20T07:46:40.140Z,98631.50
2022-11-20T07:49:09.134Z,98635.25
2022-11-20T07:51:39.105Z,98648.97
2022-11-20T07:54:08.055Z,98656.78
2022-11-20T07:56:36.528Z,98650.03
2022-11-20T07:59:05.669Z,98656.81
2022-11-20T08:01:33.979Z,98661.84
2022-11-20T08:04:02.807Z,98668.13
2022-11-20T08:06:31.374Z,98680.47
2022-11-20T08:09:01.796Z,98697.00
2022-11-20T08:11:48.082Z,98698.00
2022-11-20T08:14:16.900Z,98689.34
2022-11-20T08:16:47.616Z,98685.91
2022-11-20T08:19:18.364Z,98684.13
2022-11-20T08:21:47.275Z,98698.91
2022-11-20T08:24:17.480Z,98697.06
2022-11-20T08:26:45.953Z,98704.13
2022-11-20T08:29:15.740Z,98701.38
2022-11-20T08:31:44.346Z,98697.25
2022-11-20T08:34:33.129Z,98690.41
2022-11-20T08:37:03.836Z,98682.53
2022-11-20T08:39:34.008Z,98696.25
2022-11-20T08:42:02.540Z,98693.63
2022-11-20T08:44:31.747Z,98692.94
2022-11-20T08:47:00.275Z,98700.63
2022-11-20T08:49:29.425Z,98684.41
2022-11-20T08:51:59.057Z,98681.81
2022-11-20T08:54:27.794Z,98672.50
2022-11-20T08:56:57.721Z,98684.34
2022-11-20T08:59:50.667Z,98687.28
2022-11-20T09:02:14.948Z,98688.50
2022-11-20T09:04:43.736Z,98699.28
2022-11-20T09:07:12.301Z,98685.25
2022-11-20T09:09:41.095Z,98708.19
2022-11-20T09:12:10.993Z,98692.22
2022-11-20T09:14:39.805Z,98692.97
2022-11-20T09:17:08.788Z,98698.16
2022-11-20T09:19:37.492Z,98694.59
2022-11-20T09:22:06.032Z,98681.94
2022-11-20T09:24:34.957Z,98675.16
2022-11-20T09:27:07.143Z,98677.19
2022-11-20T09:29:37.489Z,98680.50
2022-11-20T09:32:07.041Z,98678.88
2022-11-20T09:34:35.846Z,98674.44
2022-11-20T09:37:06.526Z,98660.31
2022-11-20T09:39:39.911Z,98685.59
2022-11-20T09:42:51.616Z,98699.47
2022-11-20T09:45:45.239Z,98711.03
2022-11-20T09:48:28.204Z,98720.00
2022-11-20T09:51:06.301Z,98735.28
2022-11-20T09:53:43.932Z,98727.47
2022-11-20T09:56:16.984Z,98713.59
2022-11-20T09:58:52.864Z,98714.53
2022-11-20T10:01:28.273Z,98723.97
2022-11-20T10:04:01.074Z,98723.66
2022-11-20T10:06:32.806Z,98723.09
2022-11-20T10:09:16.484Z,98730.91
2022-11-20T10:11:54.035Z,98726.53
2022-11-20T10:14:35.469Z,98736.78
2022-11-20T10:17:18.992Z,98731.63
2022-11-20T10:20:05.003Z,98728.50
2022-11-20T10:22:47.126Z,98727.53
2022-11-20T10:25:18.047Z,98721.72
2022-11-20T10:28:00.890Z,98721.72
2022-11-20T10:30:31.293Z,98722.69
2022-11-20T10:33:08.855Z,98710.53
2022-11-20T10:35:45.334Z,98716.34
2022-11-20T10:38:21.772Z,98719.03
2022-11-20T10:40:54.120Z,98722.44
2022-11-20T10:43:29.633Z,98733.03
2022-11-20T10:46:02.760Z,98718.97
2022-11-20T10:48:34.675Z,98730.34
2022-11-20T10:51:24.065Z,98737.31
2022-11-20T10:54:12.642Z,98734.53
2022-11-20T10:56:49.508Z,98730.78
2022-11-20T10:59:37.706Z,98743.31
2022-11-20T11:02:18.587Z,98728.34
2022-11-20T11:04:51.561Z,98738.78
2022-11-20T11:07:25.662Z,98733.75
2022-11-20T11:09:57.094Z,98743.38
2022-11-20T11:12:27.892Z,98754.63
2022-11-20T11:14:58.936Z,98758.31
2022-11-20T11:17:30.404Z,98754.78
2022-11-20T11:20:02.693Z,98744.38
2022-11-20T11:22:32.435Z,98741.81
2022-11-20T11:25:02.062Z,98745.44
2022-11-20T11:27:30.852Z,98752.41
2022-11-20T11:30:16.146Z,98746.25
2022-11-20T11:32:46.153Z,98737.56
2022-11-20T11:35:25.872Z,98736.63
2022-11-20T11:38:17.524Z,98727.22
2022-11-20T11:40:46.409Z,98734.19
2022-11-20T11:43:39.954Z,98733.22
2022-11-20T11:46:27.561Z,98736.66
2022-11-20T11:49:00.683Z,98741.00
2022-11-20T11:51:38.567Z,98745.41
2022-11-20T11:54:18.293Z,98745.41
2022-11-20T11:56:48.064Z,98744.66
2022-11-20T11:59:25.705Z,98743.75
2022-11-20T12:02:01.447Z,98748.06
2022-11-20T12:04:44.763Z,98747.91
2022-11-20T12:07:45.406Z,98766.19
2022-11-20T12:10:21.176Z,98757.63
2022-11-20T12:12:55.600Z,98760.19
2022-11-20T12:15:33.517Z,98769.75
2022-11-20T12:18:03.279Z,98770.63
2022-11-20T12:20:37.845Z,98774.97
2022-11-20T12:23:18.663Z,98794.88
2022-11-20T12:25:55.775Z,98788.81
2022-11-20T12:28:48.970Z,98781.03
2022-11-20T12:31:32.146Z,98782.72
2022-11-20T12:34:12.108Z,98794.81
2022-11-20T12:36:47.576Z,98788.69
2022-11-20T12:39:33.327Z,98790.28
2022-11-20T12:43:06.357Z,98786.00
2022-11-20T12:45:54.360Z,98788.44
2022-11-20T12:48:46.616Z,98797.38
2022-11-20T12:51:45.354Z,98806.91
2022-11-20T12:54:31.318Z,98806.91
2022-11-20T12:57:06.949Z,98813.81
2022-11-20T13:00:00.741Z,98816.41
2022-11-20T13:02:39.470Z,98815.59
2022-11-20T13:05:21.774Z,98821.69
2022-11-20T13:07:54.540Z,98825.13
2022-11-20T13:10:34.661Z,98820.78
2022-11-20T13:13:14.650Z,98811.22
2022-11-20T13:15:52.869Z,98811.97
2022-11-20T13:18:22.264Z,98825.81
2022-11-20T13:20:50.917Z,98823.34
2022-11-20T13:23:27.941Z,98825.09
2022-11-20T13:26:16.062Z,98815.56
2022-11-20T13:28:44.918Z,98799.84
2022-11-20T13:31:32.331Z,98809.44
2022-11-20T13:34:03.793Z,98804.22
2022-11-20T13:36:33.407Z,98802.41
2022-11-20T13:39:02.151Z,98800.59
2022-11-20T13:41:35.083Z,98805.72
2022-11-20T13:44:14.931Z,98805.72
2022-11-20T13:46:45.646Z,98802.22
2022-11-20T13:49:22.878Z,98792.38
2022-11-20T13:51:54.170Z,98795.53
2022-11-20T13:54:55.628Z,98787.34
2022-11-20T13:57:50.825Z,98783.75
2022-11-20T14:00:22.107Z,98791.13
2022-11-20T14:03:04.122Z,98797.38
2022-11-20T14:05:37.039Z,98806.88
2022-11-20T14:08:07.626Z,98809.50
2022-11-20T14:10:40.125Z,98812.97
2022-11-20T14:13:21.221Z,98812.78
2022-11-20T14:15:50.212Z,98802.38
2022-11-20T14:18:23.461Z,98789.91
2022-11-20T14:20:52.363Z,98793.63
2022-11-20T14:23:30.073Z,98799.91
2022-11-20T14:25:59.639Z,98795.53
2022-11-20T14:28:31.641Z,98812.13
2022-11-20T14:31:01.075Z,98818.22
2022-11-20T14:33:29.971Z,98823.41
2022-11-20T14:35:59.908Z,98833.78
2022-11-20T14:38:31.097Z,98833.78
2022-11-20T14:41:08.987Z,98835.50
2022-11-20T14:43:39.207Z,98836.34
2022-11-20T14:46:11.082Z,98833.75
2022-11-20T14:48:41.853Z,98829.44
2022-11-20T14:51:12.158Z,98819.88
2022-11-20T14:53:40.776Z,98802.50
2022-11-20T14:56:10.842Z,98792.22
2022-11-20T14:58:41.693Z,98793.06
2022-11-20T15:01:15.827Z,98797.28
2022-11-20T15:03:44.644Z,98790.97
2022-11-20T15:06:14.537Z,98794.69
2022-11-20T15:08:52.779Z,98793.94
2022-11-20T15:11:25.843Z,98788.59
2022-11-20T15:13:56.251Z,98790.44
2022-11-20T15:16:27.823Z,98777.44
2022-11-20T15:18:57.191Z,98780.09
2022-11-20T15:21:26.354Z,98783.59
2022-11-20T15:23:55.453Z,98780.84
2022-11-20T15:26:27.123Z,98772.91
2022-11-20T15:28:57.222Z,98780.00
2022-11-20T15:31:26.297Z,98779.19
2022-11-20T15:33:54.787Z,98766.97
2022-11-20T15:36:23.713Z,98757.16
2022-11-20T15:39:12.710Z,98753.34
2022-11-20T15:41:41.836Z,98737.66
2022-11-20T15:44:12.539Z,98757.41
2022-11-20T15:46:45.586Z,98764.84
2022-11-20T15:49:15.836Z,98771.63
2022-11-20T15:51:47.373Z,98788.88
2022-11-20T15:54:18.575Z,98793.47
2022-11-20T15:56:47.758Z,98809.34
2022-11-20T15:59:17.707Z,98818.94
2022-11-20T16:01:47.229Z,98818.16
2022-11-20T16:04:17.805Z,98817.25
2022-11-20T16:06:47.060Z,98816.38
2022-11-20T16:09:15.972Z,98821.50
2022-11-20T16:11:45.673Z,98812.63
2022-11-20T16:14:31.814Z,98822.13
2022-11-20T16:17:02.691Z,98811.53
2022-11-20T16:19:31.399Z,98813.97
2022-11-20T16:22:02.887Z,98833.28
2022-11-20T16:24:32.275Z,98828.31
2022-11-20T16:27:04.090Z,98835.41
2022-11-20T16:29:32.694Z,98832.72
2022-11-20T16:32:03.351Z,98837.13
2022-11-20T16:34:32.322Z,98831.91
2022-11-20T16:37:01.523Z,98831.09
2022-11-20T16:39:30.384Z,98838.88
2022-11-20T16:41:59.461Z,98841.44
2022-11-20T16:44:28.687Z,98850.97
2022-11-20T16:46:57.907Z,98866.59
2022-11-20T16:49:28.562Z,98861.41
2022-11-20T16:51:57.962Z,98857.94
2022-11-20T16:54:27.435Z,98857.94
2022-11-20T16:56:56.557Z,98850.09
2022-11-20T16:59:25.567Z,98841.44
2022-11-20T17:01:54.762Z,98831.81
2022-11-20T17:04:24.807Z,98834.28
2022-11-20T17:06:55.571Z,98835.22
2022-11-20T17:09:24.353Z,98838.78
2022-11-20T17:11:53.077Z,98828.34
2022-11-20T17:14:21.885Z,98824.00
2022-11-20T17:16:50.773Z,98817.91
2022-11-20T17:19:20.090Z,98812.72
2022-11-20T17:21:49.809Z,98804.88
2022-11-20T17:24:20.108Z,98803.13
2022-11-20T17:26:50.123Z,98803.16
2022-11-20T17:29:21.694Z,98799.00
2022-11-20T17:31:50.894Z,98795.56
2022-11-20T17:34:20.052Z,98802.31
2022-11-20T17:36:50.315Z,98805.06
2022-11-20T17:39:20.252Z,98805.97
2022-11-20T17:42:09.664Z,98795.50
2022-11-20T17:44:38.441Z,98791.13
2022-11-20T17:47:07.429Z,98784.22
2022-11-20T17:49:56.033Z,98789.38
2022-11-20T17:52:25.291Z,98783.06
2022-11-20T17:54:56.101Z,98786.69
2022-11-20T17:57:42.928Z,98785.81
2022-11-20T18:00:13.258Z,98784.81
2022-11-20T18:02:42.247Z,98801.38
2022-11-20T18:05:11.077Z,98792.66
2022-11-20T18:07:41.949Z,98797.81
2022-11-20T18:10:12.349Z,98813.47
2022-11-20T18:12:41.548Z,98808.38
2022-11-20T18:15:30.528Z,98805.88
2022-11-20T18:17:59.387Z,98802.28
2022-11-20T18:20:30.478Z,98804.75
2022-11-20T18:23:01.935Z,98789.41
2022-11-20T18:25:31.859Z,98786.88
2022-11-20T18:28:00.831Z,98795.47
2022-11-20T18:30:29.494Z,98789.13
2022-11-20T18:32:58.352Z,98789.13
2022-11-20T18:35:28.195Z,98794.47
2022-11-20T18:37:57.066Z,98801.59
2022-11-20T18:40:25.942Z,98808.53
2022-11-20T18:43:14.160Z,98793.72
2022-11-20T18:45:42.752Z,98783.34
2022-11-20T18:48:11.848Z,98779.06
2022-11-20T18:50:40.419Z,98776.44
2022-11-20T18:53:09.268Z,98774.72
2022-11-20T18:55:37.905Z,98760.72
2022-11-20T18:58:08.155Z,98757.41
2022-11-20T19:00:36.733Z,98750.59
2022-11-20T19:03:05.631Z,98746.13
2022-11-20T19:05:38.488Z,98762.66
2022-11-20T19:08:07.434Z,98766.97
2022-11-20T19:10:37.569Z,98757.28
2022-11-20T19:13:08.069Z,98747.81
2022-11-20T19:15:37.757Z,98755.34
2022-11-20T19:18:06.714Z,98754.38
2022-11-20T19:20:35.344Z,98754.13
2022-11-20T19:23:04.262Z,98758.09
2022-11-20T19:25:37.887Z,98761.78
2022-11-20T19:28:08.519Z,98770.47
2022-11-20T19:30:36.984Z,98781.16
2022-11-20T19:33:05.978Z,98784.41
2022-11-20T19:35:36.554Z,98786.25
2022-11-20T19:38:06.106Z,98784.75
2022-11-20T19:40:34.691Z,98778.06
2022-11-20T19:43:03.988Z,98774.25
2022-11-20T19:45:33.916Z,98775.03
2022-11-20T19:48:09.873Z,98773.13
2022-11-20T19:50:38.687Z,98775.34
2022-11-20T19:53:07.578Z,98788.47
2022-11-20T19:55:36.101Z,98782.13
2022-11-20T19:58:05.077Z,98777.09
2022-11-20T20:00:34.831Z,98772.72
2022-11-20T20:03:03.620Z,98775.75
2022-11-20T20:05:33.128Z,98773.56
2022-11-20T20:08:02.005Z,98776.41
2022-11-20T20:10:30.575Z,98781.47
2022-11-20T20:12:59.355Z,98772.84
2022-11-20T20:15:27.811Z,98770.63
2022-11-20T20:17:58.078Z,98767.06
2022-11-20T20:20:27.358Z,98764.41
2022-11-20T20:22:56.655Z,98770.03
2022-11-20T20:25:25.987Z,98757.44
2022-11-20T20:27:56.002Z,98763.34
2022-11-20T20:30:26.222Z,98764.13
2022-11-20T20:33:04.347Z,98752.59
2022-11-20T20:35:34.351Z,98760.00
2022-11-20T20:38:03.506Z,98752.34
2022-11-20T20:40:32.737Z,98745.53
2022-11-20T20:43:02.427Z,98742.59
2022-11-20T20:45:31.596Z,98730.13
2022-11-20T20:48:01.220Z,98728.03
2022-11-20T20:50:30.179Z,98723.25
2022-11-20T20:53:00.594Z,98720.31
2022-11-20T20:55:49.098Z,98727.53
2022-11-20T20:58:18.228Z,98724.34
2022-11-20T21:00:47.057Z,98723.63
2022-11-20T21:03:16.356Z,98720.44
2022-11-20T21:05:45.183Z,98719.13
2022-11-20T21:08:25.428Z,98709.47
2022-11-20T21:10:55.716Z,98709.22
2022-11-20T21:13:25.219Z,98708.09
2022-11-20T21:15:54.015Z,98700.06
2022-11-20T21:18:24.487Z,98703.34
2022-11-20T21:21:10.728Z,98708.13
2022-11-20T21:23:41.887Z,98715.34
2022-11-20T21:26:11.338Z,98720.09
2022-11-20T21:28:40.251Z,98727.13
2022-11-20T21:31:10.416Z,98715.38
2022-11-20T21:33:40.866Z,98712.09
2022-11-20T21:36:09.805Z,98715.22
2022-11-20T21:38:40.507Z,98711.22
2022-11-20T21:41:11.377Z,98704.56
2022-11-20T21:43:40.430Z,98703.63
2022-11-20T21:46:10.691Z,98701.19
2022-11-20T21:48:40.866Z,98708.97
2022-11-20T21:51:11.136Z,98704.69
2022-11-20T21:53:42.130Z,98720.31
2022-11-20T21:56:14.329Z,98707.38
2022-11-20T21:58:47.182Z,98710.84
2022-11-20T22:01:18.012Z,98717.75
2022-11-20T22:03:49.549Z,98714.28
2022-11-20T22:06:18.834Z,98714.34
2022-11-20T22:08:49.794Z,98719.53
2022-11-20T22:11:20.703Z,98705.53
2022-11-20T22:14:07.755Z,98706.44
2022-11-20T22:16:37.003Z,98709.09
2022-11-20T22:19:07.017Z,98703.09
2022-11-20T22:21:36.060Z,98710.03
2022-11-20T22:24:06.839Z,98702.25
2022-11-20T22:26:40.325Z,98701.44
2022-11-20T22:29:15.024Z,98703.16
2022-11-20T22:31:43.940Z,98691.94
2022-11-20T22:34:14.333Z,98698.88
2022-11-20T22:36:43.221Z,98695.34
2022-11-20T22:39:13.758Z,98694.47
2022-11-20T22:41:42.437Z,98675.41
2022-11-20T22:44:15.497Z,98678.97
2022-11-20T22:46:44.288Z,98660.75
2022-11-20T22:49:13.185Z,98663.34
2022-11-20T22:51:43.008Z,98669.41
2022-11-20T22:54:14.040Z,98683.38
2022-11-20T22:57:03.427Z,98671.25
2022-11-20T22:59:32.602Z,98662.59
2022-11-20T23:02:00.976Z,98657.38
2022-11-20T23:04:29.595Z,98654.63
2022-11-20T23:06:57.923Z,98637.91
2022-11-20T23:09:27.986Z,98630.28
2022-11-20T23:11:56.472Z,98621.47
2022-11-20T23:14:27.848Z,98612.75
2022-11-20T23:16:56.479Z,98606.44
2022-11-20T23:19:25.386Z,98603.00
2022-11-20T23:21:54.264Z,98589.91
2022-11-20T23:24:23.069Z,98583.03
2022-11-20T23:26:52.961Z,98584.16
2022-11-20T23:29:21.730Z,98579.09
2022-11-20T23:31:50.189Z,98589.13
2022-11-20T23:34:19.273Z,98581.03
2022-11-20T23:36:47.890Z,98575.13
2022-11-20T23:39:16.865Z,98575.41
2022-11-20T23:41:45.282Z,98574.41
2022-11-20T23:44:15.447Z,98569.81
2022-11-20T23:46:44.024Z,98558.53
2022-11-20T23:49:12.743Z,98555.50
2022-11-20T23:51:41.272Z,98554.38
2022-11-20T23:54:10.132Z,98551.22
2022-11-20T23:56:38.529Z,98551.16
2022-11-20T23:59:07.935Z,98550.16
